Time;durP1;ratioP1;P1;durP2;ratioP2;P2;SDS_P1;SDS_P2;PMS_P1;PMS_P2;Temp;Humidity;BMP_temperature;BMP_pressure;BME280_temperature;BME280_humidity;BME280_pressure;Samples;Min_cycle;Max_cycle;Signal;HPM_P1;HPM_P2
2024/01/11 15:35:07;;;;;;;;;2.00;1.50;;;;;;;;5107113;27;13389;-81
2024/01/11 15:37:33;;;;;;;;;1.75;1.75;;;;;;;;5110179;27;11508;-81
2024/01/11 15:39:59;;;;;;;;;0.75;0.75;;;;;;;;5107160;28;11467;-82
2024/01/11 15:42:25;;;;;;;;;3.75;2.25;;;;;;;;5107575;27;8804;-82
2024/01/11 15:44:51;;;;;;;;;2.00;2.00;;;;;;;;5115960;27;11519;-84
2024/01/11 15:47:16;;;;;;;;;3.00;1.75;;;;;;;;5116362;27;11453;-83
2024/01/11 15:49:41;;;;;;;;;3.00;2.00;;;;;;;;5108493;28;8789;-90
2024/01/11 15:52:06;;;;;;;;;4.00;4.00;;;;;;;;5106393;27;8955;-83
2024/01/11 15:54:32;;;;;;;;;3.50;2.00;;;;;;;;5107612;28;8816;-78
2024/01/11 15:56:58;;;;;;;;;4.75;2.00;;;;;;;;5107507;28;8808;-76
2024/01/11 15:59:23;;;;;;;;;4.25;1.25;;;;;;;;5107789;28;8929;-78
2024/01/11 16:01:48;;;;;;;;;2.00;2.00;;;;;;;;5107651;28;8807;-77
2024/01/11 16:04:13;;;;;;;;;1.00;1.00;;;;;;;;5107656;28;8824;-76
2024/01/11 16:06:39;;;;;;;;;4.00;3.50;;;;;;;;5107580;28;8839;-80
2024/01/11 16:09:05;;;;;;;;;6.00;4.00;;;;;;;;5107021;28;8919;-79
2024/01/11 16:11:31;;;;;;;;;2.50;2.50;;;;;;;;5102753;28;8791;-76
2024/01/11 16:13:56;;;;;;;;;5.00;3.50;;;;;;;;5105492;28;11496;-77
2024/01/11 16:16:21;;;;;;;;;2.00;2.00;;;;;;;;5107629;28;8847;-76
2024/01/11 16:18:47;;;;;;;;;4.50;4.00;;;;;;;;5106820;28;8902;-76
2024/01/11 16:21:12;;;;;;;;;2.00;2.00;;;;;;;;5107792;28;8784;-76
2024/01/11 16:23:38;;;;;;;;;2.00;2.00;;;;;;;;5105246;28;8796;-77
2024/01/11 16:26:05;;;;;;;;;3.00;3.00;;;;;;;;5106065;28;8855;-80
2024/01/11 16:28:31;;;;;;;;;5.25;3.00;;;;;;;;5107270;28;11429;-71
2024/01/11 16:30:56;;;;;;;;;2.50;2.50;;;;;;;;5108412;28;11589;-74
2024/01/11 16:33:25;;;;;;;;;3.50;2.00;;;;;;;;5106209;28;8824;-71
2024/01/11 16:35:50;;;;;;;;;8.00;4.50;;;;;;;;5106228;28;8791;-73
2024/01/11 16:38:16;;;;;;;;;3.00;2.00;;;;;;;;5107215;27;11475;-80
2024/01/11 16:40:41;;;;;;;;;2.00;2.00;;;;;;;;5107563;28;8895;-79
2024/01/11 16:43:10;;;;;;;;;1.00;1.00;;;;;;;;5106327;28;11524;-79
2024/01/11 16:45:36;;;;;;;;;4.00;3.00;;;;;;;;5098461;28;8759;-78
2024/01/11 16:48:04;;;;;;;;;7.50;4.75;;;;;;;;5093399;28;11458;-75
2024/01/11 16:50:29;;;;;;;;;4.50;3.50;;;;;;;;5092472;28;11438;-76
2024/01/11 16:52:55;;;;;;;;;7.00;2.00;;;;;;;;5090214;28;11544;-77
2024/01/11 16:55:20;;;;;;;;;5.00;2.00;;;;;;;;5092990;28;8792;-76
2024/01/11 16:57:45;;;;;;;;;6.25;4.50;;;;;;;;5091455;28;8831;-77
2024/01/11 17:00:11;;;;;;;;;4.50;4.50;;;;;;;;5092398;28;8876;-78
2024/01/11 17:02:36;;;;;;;;;5.00;5.00;;;;;;;;5091618;28;8814;-81
2024/01/11 17:05:03;;;;;;;;;2.50;1.75;;;;;;;;5093486;28;8796;-79
2024/01/11 17:07:28;;;;;;;;;4.00;4.00;;;;;;;;5093649;28;8788;-81
2024/01/11 17:09:53;;;;;;;;;5.25;4.50;;;;;;;;5090694;28;11481;-77
2024/01/11 17:12:18;;;;;;;;;4.00;4.00;;;;;;;;5091307;28;8811;-78
2024/01/11 17:14:44;;;;;;;;;5.50;4.25;;;;;;;;5093076;28;8799;-81
2024/01/11 17:17:09;;;;;;;;;7.00;4.00;;;;;;;;5093623;28;8886;-82
2024/01/11 17:19:34;;;;;;;;;9.50;4.00;;;;;;;;5092751;28;8788;-76
2024/01/11 17:22:01;;;;;;;;;3.00;3.00;;;;;;;;5093085;28;8818;-81
2024/01/11 17:24:29;;;;;;;;;10.00;4.50;;;;;;;;5090907;28;8826;-76
2024/01/11 17:26:54;;;;;;;;;4.75;4.75;;;;;;;;5091835;28;11443;-80
2024/01/11 17:29:19;;;;;;;;;0.75;0.00;;;;;;;;5099595;28;11439;-81
2024/01/11 17:31:44;;;;;;;;;6.00;5.00;;;;;;;;5113401;28;8902;-83
2024/01/11 17:34:10;;;;;;;;;3.00;3.00;;;;;;;;5093864;28;8849;-75
2024/01/11 17:36:35;;;;;;;;;4.25;4.25;;;;;;;;5092987;28;8780;-81
2024/01/11 17:39:00;;;;;;;;;3.00;1.50;;;;;;;;5093388;28;8808;-73
2024/01/11 17:41:26;;;;;;;;;7.00;7.00;;;;;;;;5088482;28;8900;-73
2024/01/11 17:43:52;;;;;;;;;6.50;3.00;;;;;;;;5090833;28;8912;-74
2024/01/11 17:46:22;;;;;;;;;4.00;4.00;;;;;;;;5090571;28;8834;-80
2024/01/11 17:48:47;;;;;;;;;5.00;4.00;;;;;;;;5091927;28;11481;-75
2024/01/11 17:51:13;;;;;;;;;4.00;4.00;;;;;;;;5091691;28;12125;-78
2024/01/11 17:53:38;;;;;;;;;3.50;2.50;;;;;;;;5089058;28;8854;-75
2024/01/11 17:56:04;;;;;;;;;3.75;3.50;;;;;;;;5090893;28;8792;-77
2024/01/11 17:58:29;;;;;;;;;4.75;2.00;;;;;;;;5090544;28;8800;-75
2024/01/11 18:00:55;;;;;;;;;4.00;2.00;;;;;;;;5089863;28;8748;-78
2024/01/11 18:03:21;;;;;;;;;5.00;5.00;;;;;;;;5088281;28;8788;-78
2024/01/11 18:05:46;;;;;;;;;4.25;4.25;;;;;;;;5091165;28;11626;-80
2024/01/11 18:08:11;;;;;;;;;7.00;4.00;;;;;;;;5091975;28;8807;-81
2024/01/11 18:10:39;;;;;;;;;5.00;3.00;;;;;;;;5093328;28;8800;-78
2024/01/11 18:13:05;;;;;;;;;4.00;3.50;;;;;;;;5088515;28;8928;-82
2024/01/11 18:15:30;;;;;;;;;2.50;2.50;;;;;;;;5090690;28;11470;-81
2024/01/11 18:17:56;;;;;;;;;6.00;5.00;;;;;;;;5089552;28;8800;-81
2024/01/11 18:20:22;;;;;;;;;7.00;2.00;;;;;;;;5093397;28;8816;-77
2024/01/11 18:22:48;;;;;;;;;2.00;2.00;;;;;;;;5092820;28;11516;-78
2024/01/11 18:25:13;;;;;;;;;2.00;2.00;;;;;;;;5089326;28;8796;-76
2024/01/11 18:27:38;;;;;;;;;10.75;3.00;;;;;;;;5091390;28;9509;-80
2024/01/11 18:30:04;;;;;;;;;7.50;3.00;;;;;;;;5091131;28;8820;-77
2024/01/11 18:32:29;;;;;;;;;6.50;1.75;;;;;;;;5088882;28;8823;-75
2024/01/11 18:34:55;;;;;;;;;4.25;2.00;;;;;;;;5086561;28;9165;-77
2024/01/11 18:37:22;;;;;;;;;4.25;2.50;;;;;;;;5048773;28;10305;-72
2024/01/11 18:39:48;;;;;;;;;1.50;1.50;;;;;;;;5048652;28;11489;-80
2024/01/11 18:42:13;;;;;;;;;7.25;4.00;;;;;;;;5046632;28;11486;-73
2024/01/11 18:44:38;;;;;;;;;4.00;2.50;;;;;;;;5050833;28;8826;-78
2024/01/11 18:47:04;;;;;;;;;1.00;1.00;;;;;;;;5042561;28;8845;-80
2024/01/11 18:49:29;;;;;;;;;4.50;4.00;;;;;;;;5030894;28;8826;-79
2024/01/11 18:51:54;;;;;;;;;4.25;2.50;;;;;;;;5030351;28;8813;-74
2024/01/11 18:54:20;;;;;;;;;4.00;4.00;;;;;;;;5032101;28;8836;-76
2024/01/11 18:56:45;;;;;;;;;2.00;2.00;;;;;;;;5031116;28;8794;-77
2024/01/11 18:59:10;;;;;;;;;5.25;4.50;;;;;;;;5030808;28;8805;-76
2024/01/11 19:01:36;;;;;;;;;6.50;4.50;;;;;;;;5031227;28;8825;-75
2024/01/11 19:04:01;;;;;;;;;4.00;4.00;;;;;;;;5023845;28;8829;-75
2024/01/11 19:06:27;;;;;;;;;7.00;4.25;;;;;;;;5030954;28;8867;-76
2024/01/11 19:08:53;;;;;;;;;6.50;4.00;;;;;;;;5030171;28;8833;-76
2024/01/11 19:11:18;;;;;;;;;2.00;2.00;;;;;;;;5029374;28;8830;-78
2024/01/11 19:13:43;;;;;;;;;5.00;2.00;;;;;;;;5028384;28;9819;-79
2024/01/11 19:16:08;;;;;;;;;5.00;5.00;;;;;;;;5030796;28;8804;-82
2024/01/11 19:18:34;;;;;;;;;2.00;2.00;;;;;;;;5027373;28;8871;-78
2024/01/11 19:21:01;;;;;;;;;4.00;4.00;;;;;;;;5029225;28;8842;-82
2024/01/11 19:23:26;;;;;;;;;3.00;2.50;;;;;;;;5028719;28;8823;-83
2024/01/11 19:25:55;;;;;;;;;7.75;4.00;;;;;;;;5030198;28;11500;-80
2024/01/11 19:28:21;;;;;;;;;4.25;3.50;;;;;;;;5029313;28;8828;-85
2024/01/11 19:30:47;;;;;;;;;6.50;4.75;;;;;;;;5029944;28;11505;-86
2024/01/11 19:33:14;;;;;;;;;4.00;4.00;;;;;;;;5028101;28;8832;-81
2024/01/11 19:35:42;;;;;;;;;5.50;4.00;;;;;;;;5028838;28;11475;-84
2024/01/11 19:38:07;;;;;;;;;3.50;3.50;;;;;;;;5030099;28;11582;-83
2024/01/11 19:40:32;;;;;;;;;3.75;2.50;;;;;;;;5029345;28;11445;-81
2024/01/11 19:42:58;;;;;;;;;4.25;2.50;;;;;;;;5027095;28;8958;-83
2024/01/11 19:45:23;;;;;;;;;1.50;1.50;;;;;;;;5029987;28;8835;-83
2024/01/11 19:47:48;;;;;;;;;12.75;12.75;;;;;;;;5029852;28;8897;-82
2024/01/11 19:50:13;;;;;;;;;2.00;2.00;;;;;;;;5032685;28;9988;-80
2024/01/11 19:52:39;;;;;;;;;4.50;4.25;;;;;;;;5036089;28;9951;-82
2024/01/11 19:55:04;;;;;;;;;2.00;2.00;;;;;;;;5047972;28;8889;-76
2024/01/11 19:57:31;;;;;;;;;7.00;3.50;;;;;;;;5050315;28;8779;-80
2024/01/11 19:59:56;;;;;;;;;2.00;2.00;;;;;;;;5041389;28;8865;-77
2024/01/11 20:02:22;;;;;;;;;3.00;2.00;;;;;;;;5028170;28;11446;-74
2024/01/11 20:04:50;;;;;;;;;4.50;1.00;;;;;;;;5030134;28;8831;-73
2024/01/11 20:07:16;;;;;;;;;4.00;2.00;;;;;;;;5038666;28;8813;-75
2024/01/11 20:09:41;;;;;;;;;1.50;1.50;;;;;;;;5036224;28;11499;-73
2024/01/11 20:12:07;;;;;;;;;1.50;1.50;;;;;;;;5029298;28;8851;-76
2024/01/11 20:14:32;;;;;;;;;3.00;3.00;;;;;;;;5027653;28;8845;-76
2024/01/11 20:16:58;;;;;;;;;2.00;2.00;;;;;;;;5029942;28;8844;-78
2024/01/11 20:19:23;;;;;;;;;2.00;2.00;;;;;;;;5030641;28;9620;-73
2024/01/11 20:21:48;;;;;;;;;3.00;1.00;;;;;;;;5033572;28;8891;-79
2024/01/11 20:24:13;;;;;;;;;3.50;2.50;;;;;;;;5032819;28;8850;-74
2024/01/11 20:26:39;;;;;;;;;5.50;4.00;;;;;;;;5035613;28;8814;-74
2024/01/11 20:29:06;;;;;;;;;1.75;1.50;;;;;;;;5027411;28;8813;-78
2024/01/11 20:31:31;;;;;;;;;6.50;2.00;;;;;;;;5018207;28;8874;-77
2024/01/11 20:34:01;;;;;;;;;1.50;1.50;;;;;;;;5028128;28;11500;-80
2024/01/11 20:36:26;;;;;;;;;2.00;1.00;;;;;;;;5013800;28;8788;-80
2024/01/11 20:38:52;;;;;;;;;2.50;1.25;;;;;;;;5013495;28;12222;-77
2024/01/11 20:41:17;;;;;;;;;2.00;2.00;;;;;;;;5013980;28;8966;-76
2024/01/11 20:43:44;;;;;;;;;2.25;2.25;;;;;;;;5013609;28;11563;-79
2024/01/11 20:46:09;;;;;;;;;1.00;1.00;;;;;;;;5029559;28;8812;-75
2024/01/11 20:48:35;;;;;;;;;1.00;1.00;;;;;;;;5033292;28;11676;-74
2024/01/11 20:51:00;;;;;;;;;2.00;1.00;;;;;;;;5046210;28;8861;-74
2024/01/11 20:53:25;;;;;;;;;1.25;1.25;;;;;;;;5048438;28;9022;-74
2024/01/11 20:55:50;;;;;;;;;2.00;1.00;;;;;;;;5035589;28;8806;-75
2024/01/11 20:58:16;;;;;;;;;1.00;1.00;;;;;;;;5048658;28;8878;-75
2024/01/11 21:00:41;;;;;;;;;2.00;2.00;;;;;;;;5033219;28;8790;-74
2024/01/11 21:03:06;;;;;;;;;1.50;1.50;;;;;;;;5032618;28;9600;-74
2024/01/11 21:05:32;;;;;;;;;1.00;1.00;;;;;;;;5048498;28;9551;-74
2024/01/11 21:07:57;;;;;;;;;7.25;2.50;;;;;;;;5033222;28;8781;-75
2024/01/11 21:10:24;;;;;;;;;2.00;1.00;;;;;;;;5029187;28;8849;-78
2024/01/11 21:12:49;;;;;;;;;1.50;1.00;;;;;;;;5013264;28;8784;-77
2024/01/11 21:15:15;;;;;;;;;2.00;2.00;;;;;;;;5013073;28;11496;-77
2024/01/11 21:17:40;;;;;;;;;2.00;1.75;;;;;;;;5026346;28;8802;-73
2024/01/11 21:20:05;;;;;;;;;2.50;2.00;;;;;;;;5032517;28;8810;-73
2024/01/11 21:22:31;;;;;;;;;1.75;1.50;;;;;;;;5035125;28;8907;-74
2024/01/11 21:24:56;;;;;;;;;1.00;1.00;;;;;;;;5042905;28;8806;-74
2024/01/11 21:27:21;;;;;;;;;3.00;1.00;;;;;;;;5042537;28;8827;-74
2024/01/11 21:29:46;;;;;;;;;2.00;1.00;;;;;;;;5042269;28;9569;-73
2024/01/11 21:32:14;;;;;;;;;1.50;1.00;;;;;;;;5042426;28;8797;-73
2024/01/11 21:34:39;;;;;;;;;1.25;1.00;;;;;;;;5040600;28;9555;-73
2024/01/11 21:37:04;;;;;;;;;0.00;0.00;;;;;;;;5042216;28;11531;-74
2024/01/11 21:39:30;;;;;;;;;4.00;1.00;;;;;;;;5042002;28;8823;-74
2024/01/11 21:41:55;;;;;;;;;1.25;1.00;;;;;;;;5043194;28;8828;-73
2024/01/11 21:44:20;;;;;;;;;3.75;1.25;;;;;;;;5040079;28;8826;-74
2024/01/11 21:46:46;;;;;;;;;1.25;1.00;;;;;;;;5041905;28;8787;-73
2024/01/11 21:49:17;;;;;;;;;1.25;1.25;;;;;;;;5042619;28;8883;-73
2024/01/11 21:51:42;;;;;;;;;3.25;1.75;;;;;;;;5041826;28;8859;-73
2024/01/11 21:54:07;;;;;;;;;3.00;1.00;;;;;;;;5040984;28;11471;-73
2024/01/11 21:56:33;;;;;;;;;5.50;5.50;;;;;;;;5040516;28;8783;-73
2024/01/11 21:58:58;;;;;;;;;0.00;0.00;;;;;;;;5042119;28;8809;-73
2024/01/11 22:01:23;;;;;;;;;1.50;1.00;;;;;;;;5042255;28;8902;-73
2024/01/11 22:03:48;;;;;;;;;2.00;2.00;;;;;;;;5040577;28;8791;-73
2024/01/11 22:06:14;;;;;;;;;3.50;1.25;;;;;;;;5042251;28;8925;-73
2024/01/11 22:08:39;;;;;;;;;2.25;1.75;;;;;;;;5040917;28;8774;-72
2024/01/11 22:11:05;;;;;;;;;1.00;0.00;;;;;;;;5041231;28;9543;-73
2024/01/11 22:13:30;;;;;;;;;2.00;1.25;;;;;;;;5043610;28;8931;-73
2024/01/11 22:15:55;;;;;;;;;1.00;1.00;;;;;;;;5040083;28;8798;-73
2024/01/11 22:18:21;;;;;;;;;1.25;1.00;;;;;;;;5041650;28;8798;-71
2024/01/11 22:20:46;;;;;;;;;1.00;1.00;;;;;;;;5040719;28;8799;-72
2024/01/11 22:23:11;;;;;;;;;5.00;4.75;;;;;;;;5041993;28;8811;-73
2024/01/11 22:25:36;;;;;;;;;4.00;4.00;;;;;;;;5039914;28;8782;-73
2024/01/11 22:28:02;;;;;;;;;4.25;4.25;;;;;;;;5041777;28;8798;-72
2024/01/11 22:30:27;;;;;;;;;4.25;2.00;;;;;;;;5043927;28;8791;-76
2024/01/11 22:32:52;;;;;;;;;1.50;1.50;;;;;;;;5051024;28;8783;-73
2024/01/11 22:35:19;;;;;;;;;4.50;2.00;;;;;;;;5051005;28;8902;-77
2024/01/11 22:37:44;;;;;;;;;4.00;4.00;;;;;;;;5051253;28;8787;-77
2024/01/11 22:40:09;;;;;;;;;1.50;1.50;;;;;;;;5050387;28;11430;-77
2024/01/11 22:42:35;;;;;;;;;1.75;1.50;;;;;;;;5048783;28;8790;-77
2024/01/11 22:45:00;;;;;;;;;1.00;1.00;;;;;;;;5047789;28;8841;-79
2024/01/11 22:47:25;;;;;;;;;1.75;1.25;;;;;;;;5037661;28;8825;-80
2024/01/11 22:49:51;;;;;;;;;5.50;5.00;;;;;;;;5044522;28;8833;-80
2024/01/11 22:52:16;;;;;;;;;10.50;10.50;;;;;;;;5045321;28;8890;-80
2024/01/11 22:54:43;;;;;;;;;10.00;7.00;;;;;;;;5030246;28;8813;-79
2024/01/11 22:57:09;;;;;;;;;5.00;2.50;;;;;;;;5031023;28;8817;-80
2024/01/11 22:59:34;;;;;;;;;4.25;4.25;;;;;;;;5030944;28;11464;-79
2024/01/11 23:02:03;;;;;;;;;1.50;1.50;;;;;;;;5031119;28;9539;-80
2024/01/11 23:04:29;;;;;;;;;7.25;5.00;;;;;;;;5046235;28;8802;-79
2024/01/11 23:06:54;;;;;;;;;8.00;5.00;;;;;;;;5031277;28;11454;-80
2024/01/11 23:09:19;;;;;;;;;7.00;5.00;;;;;;;;5031173;28;8793;-80
2024/01/11 23:11:45;;;;;;;;;7.75;5.00;;;;;;;;5031083;28;8769;-80
2024/01/11 23:14:12;;;;;;;;;4.00;4.00;;;;;;;;5030802;28;9272;-79
2024/01/11 23:16:37;;;;;;;;;5.00;4.00;;;;;;;;5030964;28;8879;-79
2024/01/11 23:19:02;;;;;;;;;10.25;6.00;;;;;;;;5029172;28;11467;-79
2024/01/11 23:21:28;;;;;;;;;7.00;7.00;;;;;;;;5030601;28;8793;-78
2024/01/11 23:23:53;;;;;;;;;9.00;7.00;;;;;;;;5030937;28;8801;-78
2024/01/11 23:26:18;;;;;;;;;7.25;5.50;;;;;;;;5029442;28;8828;-80
2024/01/11 23:28:44;;;;;;;;;6.25;5.00;;;;;;;;5030752;28;8891;-80
2024/01/11 23:31:10;;;;;;;;;2.50;1.75;;;;;;;;5030834;28;8782;-79
2024/01/11 23:33:35;;;;;;;;;7.00;5.00;;;;;;;;5030399;28;8919;-79
2024/01/11 23:36:01;;;;;;;;;2.00;2.00;;;;;;;;5030644;28;11425;-73
2024/01/11 23:38:26;;;;;;;;;4.25;4.25;;;;;;;;5030727;28;8794;-74
2024/01/11 23:40:51;;;;;;;;;3.75;2.25;;;;;;;;5030795;28;8895;-81
2024/01/11 23:43:17;;;;;;;;;3.50;3.50;;;;;;;;5030696;28;8932;-81
2024/01/11 23:45:42;;;;;;;;;4.50;2.00;;;;;;;;5030671;28;8789;-82
2024/01/11 23:48:08;;;;;;;;;4.00;4.00;;;;;;;;5030603;28;8887;-82
